Pekin, IL (61554)

10:43 AM CST on December 06, 2016 (GMT -0600)
Country Club Estates | | Change Station

Elev 640 ft 40.57 °N, 89.59 °W | Updated 3 seconds ago

Overcast
Overcast
35.4 °F
Feels Like 35 °F
N
1.0
Wind Variable Wind from West
Gusts 2.0 mph

Today
High -- | Low -- °F
--% Chance of Precip.
Yesterday
High -- | Low -- °F
Precip. -- in
Pressure 29.86 in
Visibility 5.0 miles
Clouds Overcast 500 ft
Windchill 35 °F
Dew Point 35 °F
Humidity 98%
Rainfall 0.01 in
Snow Depth Not available.
7:08 AM 4:31 PM
Waxing Crescent, 43% visible
METAR KPIA 061554Z 30005KT 5SM BR OVC005 01/01 A2984 RMK AO2 SLP110 T00110011
Pressure 29.86 in
Visibility 5.0 miles
Clouds Overcast 500 ft
Windchill 35 °F
Dew Point 35 °F
Humidity 98%
Rainfall 0.01 in
Snow Depth Not available.
7:08 AM 4:31 PM
Waxing Crescent, 43% visible
METAR KPIA 061554Z 30005KT 5SM BR OVC005 01/01 A2984 RMK AO2 SLP110 T00110011

10-Day Weather Forecast

Almanac

Astronomy

Dec. 06, 2016 Rise Set
Actual Time
Civil Twilight
Nautical Twilight
Astronomical Twilight
Moon
Length of Visible Light
Length of Day
Tomorrow will be .
, % of the Moon is Illuminated

Today's Extremes

State Highs State Lows

Community

WunderPhotos

Upload Photos

1,955,983 photos uploaded!

WunderBlog® & News

Nearby

Air Quality

  Air Quality AQ Index Pollutant
Not available.

Snow Depth

Station Depth Elevation

Earthquake Activity

City Distance Mag. Time & Date
Minimum magnitude displayed is 2.5.

Coastal Water Temperatures

Place Temperature

Stations

Nearby Weather Stations

Station Location Temp. Windchill Dew Point Humidity Wind Precip. Elev Updated Type
                   

Watches & Warnings

There are currently no watches in effect.